Time;durP1;ratioP1;P1;durP2;ratioP2;P2;SDS_P1;SDS_P2;PMS_P1;PMS_P2;Temp;Humidity;BMP_temperature;BMP_pressure;BME280_temperature;BME280_humidity;BME280_pressure;Samples;Min_cycle;Max_cycle;Signal;HPM_P1;HPM_P2
2022/01/25 00:10:25;;;;;;;159.27;48.13;;;-2.00;99.90;;;;;;5064361;28;20208;-66
2022/01/25 00:26:58;;;;;;;161.63;48.57;;;-2.20;99.90;;;;;;5056741;28;20523;-65
2022/01/25 00:29:34;;;;;;;165.00;48.17;;;-2.20;99.90;;;;;;5061157;28;20204;-65
2022/01/25 00:32:03;;;;;;;169.77;48.73;;;-2.20;99.90;;;;;;5062483;28;20219;-65
2022/01/25 00:34:34;;;;;;;169.23;50.50;;;-2.20;99.90;;;;;;5062333;28;20204;-65
2022/01/25 00:37:03;;;;;;;177.00;49.67;;;-2.20;99.90;;;;;;5092199;28;20188;-65
2022/01/25 00:39:34;;;;;;;171.90;51.90;;;-2.20;99.90;;;;;;5065068;28;20263;-65
2022/01/25 00:42:04;;;;;;;183.60;52.07;;;-2.20;99.90;;;;;;5072395;28;20279;-65
2022/01/25 00:44:37;;;;;;;183.63;51.90;;;-2.20;99.90;;;;;;5063030;28;20243;-65
2022/01/25 00:47:07;;;;;;;171.13;48.47;;;-2.20;99.90;;;;;;5064676;28;20188;-65
2022/01/25 00:49:40;;;;;;;195.07;52.70;;;-2.20;99.90;;;;;;5061141;28;20250;-65
2022/01/25 00:53:52;;;;;;;183.53;50.53;;;-2.20;99.90;;;;;;5093122;28;20199;-65
2022/01/25 00:55:13;;;;;;;184.90;49.43;;;-2.30;99.90;;;;;;5064518;28;20219;-64
2022/01/25 00:57:42;;;;;;;167.50;47.30;;;-2.30;99.90;;;;;;5060558;28;20215;-65
2022/01/25 01:00:15;;;;;;;171.53;48.03;;;-2.30;99.90;;;;;;5058894;28;20734;-65
2022/01/25 01:03:04;;;;;;;157.83;45.37;;;-2.30;99.90;;;;;;5060169;28;20245;-64
2022/01/25 01:06:12;;;;;;;176.30;47.97;;;-2.30;99.90;;;;;;5061473;28;20192;-66
2022/01/25 01:08:41;;;;;;;173.03;51.73;;;-2.40;99.90;;;;;;5055987;28;20232;-64
2022/01/25 01:11:11;;;;;;;171.10;49.50;;;-2.40;99.90;;;;;;5059249;28;20577;-65
2022/01/25 01:13:54;;;;;;;168.00;48.10;;;-2.40;99.90;;;;;;5057879;28;20220;-66
2022/01/25 01:16:52;;;;;;;171.60;49.33;;;-2.40;99.90;;;;;;5079471;28;20273;-65
2022/01/25 01:30:38;;;;;;;176.17;49.50;;;-2.30;99.90;;;;;;5056360;28;20216;-66
2022/01/25 01:33:48;;;;;;;158.93;47.07;;;-2.40;99.90;;;;;;5088288;28;20295;-66
2022/01/25 01:44:38;;;;;;;163.40;47.77;;;-2.40;99.90;;;;;;5055242;28;20708;-66
2022/01/25 01:47:10;;;;;;;181.83;50.70;;;-2.40;99.90;;;;;;5062444;28;20193;-66
2022/01/25 01:49:43;;;;;;;186.20;50.73;;;-2.50;99.90;;;;;;5060388;28;20224;-66
2022/01/25 01:52:14;;;;;;;170.67;46.03;;;-2.50;99.90;;;;;;5061330;28;20775;-66
2022/01/25 01:54:44;;;;;;;165.00;46.77;;;-2.60;99.90;;;;;;5079377;28;20730;-66
2022/01/25 01:57:12;;;;;;;178.90;49.67;;;-2.60;99.90;;;;;;5061095;28;20283;-66
2022/01/25 01:59:41;;;;;;;175.50;50.13;;;-2.60;99.90;;;;;;5059080;28;20761;-66
2022/01/25 02:02:09;;;;;;;180.13;48.73;;;-2.60;99.90;;;;;;5061068;28;20200;-66
2022/01/25 02:04:38;;;;;;;166.57;46.37;;;-2.60;99.90;;;;;;5094457;28;20216;-66
2022/01/25 02:07:09;;;;;;;167.10;47.40;;;-2.60;99.90;;;;;;5062670;28;20667;-66
2022/01/25 02:09:38;;;;;;;178.30;49.23;;;-2.60;99.90;;;;;;5060181;28;20224;-66
2022/01/25 02:12:09;;;;;;;186.47;51.47;;;-2.60;99.90;;;;;;5058166;28;20445;-67
2022/01/25 02:14:40;;;;;;;178.23;47.97;;;-2.70;99.90;;;;;;5051449;28;20185;-66
2022/01/25 02:17:23;;;;;;;174.23;48.23;;;-2.70;99.90;;;;;;5057277;28;20192;-66
2022/01/25 02:22:56;;;;;;;173.57;48.70;;;-2.70;99.90;;;;;;5077340;28;20565;-66
2022/01/25 02:25:25;;;;;;;167.07;48.43;;;-2.70;99.90;;;;;;5061462;28;20592;-66
2022/01/25 02:27:54;;;;;;;160.97;44.87;;;-2.70;99.90;;;;;;5056230;28;20220;-66
2022/01/25 02:30:23;;;;;;;174.53;48.27;;;-2.70;99.90;;;;;;5058237;28;21374;-66
2022/01/25 02:32:52;;;;;;;171.87;47.53;;;-2.70;99.90;;;;;;5055443;28;20635;-66
2022/01/25 02:35:21;;;;;;;184.90;47.23;;;-2.80;99.90;;;;;;5061475;28;20649;-66
2022/01/25 02:37:50;;;;;;;171.07;46.53;;;-2.80;99.90;;;;;;5057839;28;20682;-66
2022/01/25 02:40:18;;;;;;;162.57;46.63;;;-2.90;99.90;;;;;;5056102;28;20324;-66
2022/01/25 02:42:47;;;;;;;176.97;47.73;;;-2.90;99.90;;;;;;5058926;28;20192;-65
2022/01/25 02:45:17;;;;;;;191.27;50.90;;;-2.90;99.90;;;;;;5056849;28;20209;-66
2022/01/25 02:50:34;;;;;;;186.17;49.80;;;-2.80;99.90;;;;;;5054707;28;20295;-66
2022/01/25 02:53:03;;;;;;;192.93;47.80;;;-2.80;99.90;;;;;;5060075;28;20203;-66
2022/01/25 02:55:31;;;;;;;193.37;49.90;;;-2.70;99.90;;;;;;5051759;28;20640;-66
2022/01/25 02:58:00;;;;;;;188.43;48.60;;;-2.80;99.90;;;;;;5055348;28;20280;-66
2022/01/25 03:00:28;;;;;;;181.90;48.97;;;-2.80;99.90;;;;;;5053390;28;20228;-66
2022/01/25 03:02:57;;;;;;;170.70;45.97;;;-2.90;99.90;;;;;;5057816;28;20192;-65
2022/01/25 03:05:26;;;;;;;178.07;48.30;;;-2.90;99.90;;;;;;5061496;28;20228;-65
2022/01/25 03:07:57;;;;;;;169.30;47.80;;;-3.00;99.90;;;;;;5054384;28;20926;-65
2022/01/25 03:10:35;;;;;;;166.30;47.63;;;-3.00;99.90;;;;;;5063251;28;20216;-65
2022/01/25 03:13:07;;;;;;;177.00;47.43;;;-3.00;99.90;;;;;;5059804;28;20188;-65
2022/01/25 03:15:55;;;;;;;175.27;48.37;;;-3.00;99.90;;;;;;5060903;28;20191;-65
2022/01/25 03:18:45;;;;;;;183.20;47.87;;;-3.00;99.90;;;;;;5059661;28;20196;-65
2022/01/25 03:21:36;;;;;;;169.37;46.77;;;-3.00;99.90;;;;;;5059243;28;20201;-65
2022/01/25 03:24:07;;;;;;;188.20;48.10;;;-2.90;99.90;;;;;;5058351;28;20208;-65
2022/01/25 03:26:36;;;;;;;181.33;49.73;;;-2.90;99.90;;;;;;5062843;28;20200;-65
2022/01/25 03:29:05;;;;;;;171.13;47.80;;;-2.90;99.90;;;;;;5055969;28;20207;-65
2022/01/25 03:31:34;;;;;;;183.53;49.07;;;-2.90;99.90;;;;;;5060870;28;20205;-65
2022/01/25 03:34:02;;;;;;;196.03;50.77;;;-2.90;99.90;;;;;;5061226;28;20295;-65
2022/01/25 03:36:31;;;;;;;204.00;49.47;;;-2.90;99.90;;;;;;5058671;28;20251;-65
2022/01/25 03:39:00;;;;;;;190.97;51.07;;;-2.80;99.90;;;;;;5060020;28;20602;-65
2022/01/25 03:41:35;;;;;;;183.63;47.50;;;-2.80;99.90;;;;;;5060227;28;20219;-65
2022/01/25 03:44:05;;;;;;;177.50;47.13;;;-2.70;99.90;;;;;;5062957;28;20677;-65
2022/01/25 03:46:39;;;;;;;178.00;49.90;;;-2.70;99.90;;;;;;5059183;28;20210;-65
2022/01/25 03:51:54;;;;;;;185.00;48.83;;;-2.70;99.90;;;;;;5062232;28;20645;-65
2022/01/25 03:54:23;;;;;;;184.80;49.50;;;-2.60;99.90;;;;;;5038789;28;20220;-65
2022/01/25 03:56:53;;;;;;;176.50;47.50;;;-2.60;99.90;;;;;;5061475;28;20302;-65
2022/01/25 03:59:21;;;;;;;187.80;47.57;;;-2.60;99.90;;;;;;5056857;28;20284;-65
2022/01/25 04:01:52;;;;;;;180.27;48.10;;;-2.60;99.90;;;;;;5055450;28;20207;-65
2022/01/25 04:04:25;;;;;;;181.33;47.43;;;-2.70;99.90;;;;;;5061995;28;20239;-65
2022/01/25 04:06:54;;;;;;;163.07;46.60;;;-2.70;99.90;;;;;;5061258;28;20207;-65
2022/01/25 04:09:23;;;;;;;191.07;49.37;;;-2.70;99.90;;;;;;5056140;28;20642;-65
2022/01/25 04:11:53;;;;;;;183.33;48.63;;;-2.80;99.90;;;;;;5061928;28;20213;-65
2022/01/25 04:14:22;;;;;;;179.60;47.63;;;-2.80;99.90;;;;;;5067531;28;20200;-65
2022/01/25 04:16:56;;;;;;;187.10;48.80;;;-2.80;99.90;;;;;;5055328;28;20508;-64
2022/01/25 04:19:33;;;;;;;185.77;47.60;;;-2.80;99.90;;;;;;5063703;28;20270;-64
2022/01/25 04:25:06;;;;;;;184.83;47.17;;;-2.90;99.90;;;;;;5056452;28;20248;-64
2022/01/25 04:27:36;;;;;;;171.40;47.27;;;-2.90;99.90;;;;;;5065030;28;20200;-64
2022/01/25 04:30:07;;;;;;;198.30;49.10;;;-2.90;99.90;;;;;;5041348;28;20199;-64
2022/01/25 04:32:43;;;;;;;198.20;47.80;;;-2.90;99.90;;;;;;5055218;28;20193;-64
2022/01/25 04:35:27;;;;;;;192.37;51.37;;;-2.80;99.90;;;;;;5059723;28;20227;-64
2022/01/25 04:49:12;;;;;;;204.60;51.10;;;-1.80;99.90;;;;;;5055835;28;20200;-64
2022/01/25 04:54:38;;;;;;;195.43;48.50;;;-1.50;99.90;;;;;;5056608;28;20208;-64
2022/01/25 04:57:20;;;;;;;219.97;52.37;;;-1.40;99.90;;;;;;5059468;28;20199;-64
2022/01/25 04:59:56;;;;;;;211.43;52.90;;;-1.30;99.90;;;;;;5060414;28;20220;-64
2022/01/25 05:02:35;;;;;;;243.43;53.73;;;-1.20;99.90;;;;;;5055971;28;20287;-64
2022/01/25 05:05:10;;;;;;;212.43;53.57;;;-1.10;99.90;;;;;;5062035;28;20238;-64
2022/01/25 05:07:45;;;;;;;256.33;53.30;;;-1.00;99.90;;;;;;5060353;28;20223;-64
2022/01/25 05:10:15;;;;;;;223.57;52.77;;;-0.90;99.90;;;;;;5063820;28;20215;-64
2022/01/25 05:12:47;;;;;;;219.70;51.43;;;-0.80;99.90;;;;;;5055986;28;20238;-64
2022/01/25 05:16:01;;;;;;;283.47;54.60;;;-0.80;99.90;;;;;;5060208;28;20735;-64
2022/01/25 05:18:40;;;;;;;316.47;51.43;;;-0.70;99.90;;;;;;5065770;28;20204;-64
2022/01/25 05:23:55;;;;;;;286.57;50.53;;;-0.40;99.90;;;;;;5053991;28;20250;-64
2022/01/25 05:26:25;;;;;;;308.73;51.27;;;-0.40;99.90;;;;;;5060721;28;20311;-64
2022/01/25 05:28:59;;;;;;;338.93;51.03;;;-0.30;99.90;;;;;;5063388;28;20265;-64
2022/01/25 05:31:29;;;;;;;313.97;50.43;;;-0.30;99.90;;;;;;5061400;28;20539;-65
2022/01/25 05:33:57;;;;;;;295.03;50.97;;;-0.20;99.90;;;;;;5056514;28;20562;-64
2022/01/25 05:36:26;;;;;;;256.57;48.70;;;-0.20;99.90;;;;;;5056847;28;20630;-64
2022/01/25 05:38:57;;;;;;;327.70;51.37;;;-0.30;99.90;;;;;;5058566;28;20257;-64
2022/01/25 05:41:29;;;;;;;287.17;48.03;;;-0.20;99.90;;;;;;5056027;28;20323;-64
2022/01/25 05:46:48;;;;;;;248.90;39.03;;;-0.10;99.90;;;;;;5052862;28;20585;-64
2022/01/25 05:49:17;;;;;;;197.63;38.80;;;0.00;99.90;;;;;;5058317;28;20197;-64
2022/01/25 05:51:46;;;;;;;294.20;41.53;;;0.00;99.90;;;;;;5060121;28;20199;-64
2022/01/25 05:54:14;;;;;;;210.27;39.33;;;0.00;99.90;;;;;;5060750;28;20238;-65
2022/01/25 05:56:49;;;;;;;266.50;41.53;;;0.00;99.90;;;;;;5057646;28;20265;-64
2022/01/25 05:59:17;;;;;;;176.57;36.77;;;0.00;99.90;;;;;;5058316;28;20590;-64
2022/01/25 06:01:48;;;;;;;169.53;36.93;;;0.10;99.90;;;;;;5058371;28;20287;-64
2022/01/25 06:04:57;;;;;;;350.40;41.23;;;0.10;99.90;;;;;;5066211;28;20215;-64
2022/01/25 06:07:59;;;;;;;155.10;34.43;;;0.10;99.90;;;;;;5058222;28;20195;-64
2022/01/25 06:10:28;;;;;;;245.60;37.67;;;0.10;99.90;;;;;;5064265;28;20216;-64
2022/01/25 06:12:56;;;;;;;239.47;38.60;;;0.10;99.90;;;;;;5062988;28;20283;-64
2022/01/25 06:15:25;;;;;;;305.37;38.33;;;0.10;99.90;;;;;;5060058;28;20347;-64
2022/01/25 06:17:56;;;;;;;376.27;41.43;;;0.10;99.90;;;;;;5061738;28;20733;-65
2022/01/25 06:20:25;;;;;;;276.97;36.63;;;0.20;99.90;;;;;;5052850;28;20265;-64
2022/01/25 06:22:53;;;;;;;237.60;37.10;;;0.20;99.90;;;;;;5049679;28;20216;-64
2022/01/25 06:25:22;;;;;;;183.17;35.87;;;0.20;99.90;;;;;;5055789;28;20216;-63
2022/01/25 06:27:50;;;;;;;288.07;38.97;;;0.20;99.90;;;;;;5054320;28;20246;-64
2022/01/25 06:30:20;;;;;;;316.43;38.63;;;0.20;99.90;;;;;;5054733;28;20589;-63
2022/01/25 06:32:49;;;;;;;315.47;38.57;;;0.30;99.90;;;;;;5056753;28;20231;-64
2022/01/25 06:35:19;;;;;;;337.93;39.37;;;0.30;99.90;;;;;;5061847;28;20224;-64
2022/01/25 06:37:47;;;;;;;328.20;39.07;;;0.30;99.90;;;;;;5056453;28;20287;-64
2022/01/25 06:40:16;;;;;;;359.40;40.83;;;0.30;99.90;;;;;;5055558;28;20227;-64
2022/01/25 06:42:45;;;;;;;282.87;35.83;;;0.30;99.90;;;;;;5056201;28;20242;-64
2022/01/25 06:45:16;;;;;;;272.77;37.60;;;0.30;99.90;;;;;;5062550;28;20222;-63
2022/01/25 06:47:46;;;;;;;241.30;36.00;;;0.30;99.90;;;;;;5057879;28;20215;-64
2022/01/25 06:50:17;;;;;;;271.13;37.60;;;0.40;99.90;;;;;;5060350;28;20229;-64
2022/01/25 06:52:47;;;;;;;268.97;39.33;;;0.40;99.90;;;;;;5054477;28;20275;-64
2022/01/25 06:55:35;;;;;;;332.47;40.73;;;0.50;99.90;;;;;;5062754;28;20755;-64
2022/01/25 06:58:04;;;;;;;267.33;37.80;;;0.50;99.90;;;;;;5059482;28;20657;-64
2022/01/25 07:00:33;;;;;;;289.43;40.27;;;0.50;99.90;;;;;;5058091;28;20684;-64
2022/01/25 07:03:01;;;;;;;295.13;39.93;;;0.50;99.90;;;;;;5055689;28;20215;-64
2022/01/25 07:05:30;;;;;;;280.97;39.67;;;0.50;99.90;;;;;;5058114;28;20196;-64
2022/01/25 07:08:00;;;;;;;303.33;40.77;;;0.60;99.90;;;;;;5054727;28;20205;-64
2022/01/25 07:10:29;;;;;;;328.00;41.17;;;0.60;99.90;;;;;;5059357;28;20270;-64
2022/01/25 07:12:58;;;;;;;300.87;41.63;;;0.60;99.90;;;;;;5054474;28;20192;-64
2022/01/25 07:15:26;;;;;;;341.47;44.57;;;0.60;99.90;;;;;;5058933;28;20205;-64
2022/01/25 07:17:55;;;;;;;331.10;43.43;;;0.60;99.90;;;;;;5060883;28;20637;-64
2022/01/25 07:20:25;;;;;;;362.17;44.37;;;0.60;99.90;;;;;;5056976;28;20327;-64
2022/01/25 07:22:54;;;;;;;367.97;45.00;;;0.60;99.90;;;;;;5051520;28;20205;-64
2022/01/25 07:25:25;;;;;;;367.17;45.37;;;0.60;99.90;;;;;;5052771;28;20218;-64
2022/01/25 07:27:53;;;;;;;374.03;46.40;;;0.60;99.90;;;;;;5055557;28;20219;-65
2022/01/25 07:30:24;;;;;;;343.63;44.13;;;0.60;99.90;;;;;;5063920;28;20199;-65
2022/01/25 07:32:53;;;;;;;379.80;46.37;;;0.70;99.90;;;;;;5061625;28;20272;-65
2022/01/25 07:35:24;;;;;;;387.57;45.17;;;0.70;99.90;;;;;;5053844;28;20203;-65
2022/01/25 07:37:57;;;;;;;337.43;46.23;;;0.70;99.90;;;;;;5060283;28;20192;-65
2022/01/25 07:40:31;;;;;;;402.83;48.30;;;0.70;99.90;;;;;;5056673;28;20230;-65
2022/01/25 07:42:59;;;;;;;387.73;47.60;;;0.70;99.90;;;;;;5061911;28;20216;-64
2022/01/25 07:45:35;;;;;;;297.03;43.73;;;0.80;99.90;;;;;;5054995;28;20243;-64
2022/01/25 07:48:08;;;;;;;392.10;46.17;;;0.80;99.90;;;;;;5056436;28;20223;-64
2022/01/25 07:50:37;;;;;;;350.50;45.20;;;0.80;99.90;;;;;;5041171;28;20200;-64
2022/01/25 07:53:06;;;;;;;359.40;47.30;;;0.80;99.90;;;;;;5059795;28;20341;-64
2022/01/25 07:55:36;;;;;;;383.40;49.20;;;0.80;99.90;;;;;;5057815;28;20719;-64
2022/01/25 07:58:08;;;;;;;390.97;49.73;;;0.80;99.90;;;;;;5058841;28;20207;-64
2022/01/25 08:00:40;;;;;;;354.20;47.93;;;0.90;99.90;;;;;;5058773;28;21452;-64
2022/01/25 08:03:09;;;;;;;339.93;48.37;;;0.90;99.90;;;;;;5055345;28;20307;-65
2022/01/25 08:05:44;;;;;;;398.93;50.80;;;0.90;99.90;;;;;;5056259;28;20200;-65
2022/01/25 08:08:15;;;;;;;349.47;46.20;;;0.90;99.90;;;;;;5055116;28;20205;-65
2022/01/25 08:10:46;;;;;;;339.17;44.07;;;0.90;99.90;;;;;;5058295;28;20197;-64
2022/01/25 08:13:16;;;;;;;341.03;46.20;;;0.90;99.90;;;;;;5058890;28;20196;-64
2022/01/25 08:15:46;;;;;;;355.93;47.67;;;1.00;99.90;;;;;;5057383;28;20245;-64
2022/01/25 08:18:18;;;;;;;343.17;48.50;;;1.00;99.90;;;;;;5062544;28;20228;-64
2022/01/25 08:20:50;;;;;;;334.80;47.10;;;1.00;99.90;;;;;;5059623;28;20653;-64
2022/01/25 08:23:18;;;;;;;314.07;46.43;;;1.10;99.90;;;;;;5056562;28;20211;-64
2022/01/25 08:25:55;;;;;;;338.43;48.70;;;1.10;99.90;;;;;;5057856;28;20196;-65
2022/01/25 08:28:32;;;;;;;317.97;48.57;;;1.10;99.90;;;;;;5054170;28;20616;-64
2022/01/25 08:31:07;;;;;;;341.63;48.87;;;1.10;99.90;;;;;;5064743;28;20196;-64
2022/01/25 08:33:40;;;;;;;368.90;48.40;;;1.20;99.90;;;;;;5061282;28;20549;-65
2022/01/25 08:36:16;;;;;;;348.67;48.93;;;1.20;99.90;;;;;;5059679;28;20215;-64
2022/01/25 08:38:51;;;;;;;335.63;49.23;;;1.20;99.90;;;;;;5056166;28;20206;-64
2022/01/25 08:41:27;;;;;;;379.33;50.60;;;1.20;99.90;;;;;;5063111;28;20230;-64
2022/01/25 08:43:58;;;;;;;322.00;50.13;;;1.20;99.90;;;;;;5053472;28;20741;-64
2022/01/25 08:46:33;;;;;;;335.97;50.87;;;1.30;99.90;;;;;;5054176;28;20204;-64
2022/01/25 08:49:07;;;;;;;340.07;51.33;;;1.30;99.90;;;;;;5057557;28;20208;-64
2022/01/25 08:51:37;;;;;;;380.17;52.03;;;1.30;99.90;;;;;;5054981;28;20604;-64
2022/01/25 08:54:06;;;;;;;313.90;51.17;;;1.30;99.90;;;;;;5059831;28;20192;-64
2022/01/25 08:56:53;;;;;;;306.40;49.90;;;1.30;99.90;;;;;;5055321;28;20200;-64
2022/01/25 08:59:28;;;;;;;346.43;51.17;;;1.40;99.90;;;;;;5055797;28;20554;-64
2022/01/25 09:01:57;;;;;;;318.90;51.57;;;1.40;99.90;;;;;;5055111;28;20265;-64
2022/01/25 09:04:26;;;;;;;321.87;50.50;;;1.40;99.90;;;;;;5061049;28;20188;-64
2022/01/25 09:06:56;;;;;;;295.10;49.03;;;1.40;99.90;;;;;;5057854;28;20215;-64
2022/01/25 09:09:27;;;;;;;287.63;50.57;;;1.40;99.90;;;;;;5057931;28;20250;-64
2022/01/25 09:11:57;;;;;;;312.87;51.47;;;1.50;99.90;;;;;;5057829;28;20200;-64
2022/01/25 09:14:26;;;;;;;292.00;50.97;;;1.50;99.90;;;;;;5059513;28;20561;-64
2022/01/25 09:16:55;;;;;;;313.33;52.17;;;1.50;99.90;;;;;;5058925;28;20652;-64
2022/01/25 09:19:23;;;;;;;310.93;51.20;;;1.60;99.90;;;;;;5054251;28;20666;-64
2022/01/25 09:21:52;;;;;;;300.73;50.97;;;1.60;99.90;;;;;;5053608;28;20246;-64
2022/01/25 09:24:21;;;;;;;286.70;51.70;;;1.60;99.90;;;;;;5060890;28;20486;-64
2022/01/25 09:26:50;;;;;;;266.90;47.50;;;1.70;99.90;;;;;;5056341;28;20215;-64
2022/01/25 09:29:20;;;;;;;274.90;47.50;;;1.70;99.90;;;;;;5061846;28;20622;-64
2022/01/25 09:31:48;;;;;;;258.70;46.87;;;1.70;99.90;;;;;;5057667;28;20239;-64
2022/01/25 09:34:20;;;;;;;241.50;46.67;;;1.70;99.90;;;;;;5053835;28;20196;-64
2022/01/25 09:36:49;;;;;;;259.53;46.40;;;1.70;99.90;;;;;;5058367;28;20275;-64
2022/01/25 09:39:19;;;;;;;222.57;44.87;;;1.70;99.90;;;;;;5055565;28;20200;-63
2022/01/25 09:41:48;;;;;;;213.20;43.00;;;1.70;99.90;;;;;;5060308;28;20200;-64
2022/01/25 09:44:18;;;;;;;218.33;43.27;;;1.70;99.90;;;;;;5061414;28;20188;-64
2022/01/25 09:46:47;;;;;;;226.33;44.73;;;1.70;99.90;;;;;;5062657;28;20204;-64
2022/01/25 09:49:16;;;;;;;236.07;47.93;;;1.80;99.90;;;;;;5051451;28;20852;-64
2022/01/25 09:51:46;;;;;;;241.77;47.60;;;1.80;99.90;;;;;;5056594;28;20639;-64
2022/01/25 09:54:16;;;;;;;239.03;50.43;;;1.80;99.90;;;;;;5056735;28;20188;-64
2022/01/25 09:56:44;;;;;;;226.07;48.47;;;1.80;99.90;;;;;;5058035;28;20206;-63
2022/01/25 09:59:16;;;;;;;246.03;50.43;;;1.90;99.90;;;;;;5058975;28;20279;-63
2022/01/25 10:01:47;;;;;;;230.37;48.30;;;1.80;99.90;;;;;;5060494;28;20607;-64
2022/01/25 10:04:28;;;;;;;216.27;43.80;;;1.90;99.90;;;;;;5059083;28;20205;-63
2022/01/25 10:07:04;;;;;;;236.27;46.57;;;1.80;99.90;;;;;;5059927;28;20220;-66
2022/01/25 10:09:34;;;;;;;216.83;44.73;;;1.90;99.90;;;;;;5042129;28;20394;-64
2022/01/25 10:12:17;;;;;;;227.77;45.40;;;1.80;99.90;;;;;;5041835;28;20223;-64
2022/01/25 10:14:55;;;;;;;224.67;46.27;;;1.90;99.90;;;;;;5056820;28;20230;-64
2022/01/25 10:17:35;;;;;;;215.93;45.43;;;1.90;99.90;;;;;;5063451;28;20207;-64
2022/01/25 10:20:05;;;;;;;202.80;43.20;;;1.90;99.90;;;;;;5050669;28;20228;-64
2022/01/25 10:22:46;;;;;;;203.30;44.00;;;2.00;99.90;;;;;;5056630;28;20306;-64
2022/01/25 10:25:30;;;;;;;206.63;45.33;;;2.00;99.90;;;;;;5058318;28;20188;-64
2022/01/25 10:28:03;;;;;;;185.63;42.23;;;2.10;99.90;;;;;;5074321;28;20223;-64
2022/01/25 10:30:37;;;;;;;176.17;43.30;;;2.00;99.90;;;;;;5058673;28;20189;-64
2022/01/25 10:33:20;;;;;;;182.57;44.10;;;2.10;99.90;;;;;;5053779;28;20196;-64
2022/01/25 10:35:49;;;;;;;197.70;45.93;;;2.10;99.90;;;;;;5057890;28;20203;-64
2022/01/25 10:38:26;;;;;;;205.13;47.13;;;2.20;99.90;;;;;;5052694;28;20242;-64
2022/01/25 10:41:01;;;;;;;223.93;47.73;;;2.30;99.90;;;;;;5055770;28;20224;-64
2022/01/25 10:43:30;;;;;;;177.43;44.97;;;2.30;99.90;;;;;;5055943;28;20200;-64
2022/01/25 10:46:22;;;;;;;181.27;45.13;;;2.40;99.90;;;;;;5052920;28;20290;-64
2022/01/25 10:48:55;;;;;;;181.30;43.40;;;2.40;99.90;;;;;;5057451;28;20209;-64
2022/01/25 10:51:26;;;;;;;187.33;45.17;;;2.30;99.90;;;;;;5058910;28;20233;-64
2022/01/25 10:54:09;;;;;;;173.93;43.93;;;2.30;99.90;;;;;;5055423;28;20200;-64
2022/01/25 10:56:41;;;;;;;159.70;43.47;;;2.30;99.90;;;;;;5056710;28;20219;-64
2022/01/25 10:59:12;;;;;;;155.17;42.93;;;2.30;99.90;;;;;;5060699;28;20184;-64
2022/01/25 11:01:46;;;;;;;158.53;42.97;;;2.40;99.90;;;;;;5057001;28;20389;-64
2022/01/25 11:04:18;;;;;;;149.80;41.70;;;2.40;99.90;;;;;;5055569;28;20200;-64
2022/01/25 11:06:57;;;;;;;145.40;41.87;;;2.50;99.90;;;;;;5055404;28;20207;-64
2022/01/25 11:09:34;;;;;;;139.97;40.67;;;2.50;99.90;;;;;;5059168;28;20599;-64
2022/01/25 11:12:04;;;;;;;138.77;41.73;;;2.50;99.90;;;;;;5061910;28;20191;-64
2022/01/25 11:17:16;;;;;;;137.17;41.10;;;2.60;99.90;;;;;;5055699;28;20274;-64
2022/01/25 11:19:46;;;;;;;127.83;41.90;;;2.60;99.90;;;;;;5055509;28;20209;-64
2022/01/25 11:22:19;;;;;;;119.83;38.93;;;2.60;99.90;;;;;;5060590;28;20199;-64
2022/01/25 11:24:51;;;;;;;125.93;38.77;;;2.60;99.90;;;;;;5064838;28;20203;-64
2022/01/25 11:27:23;;;;;;;130.37;40.73;;;2.60;99.90;;;;;;5058102;28;20235;-64
2022/01/25 11:29:55;;;;;;;121.60;39.00;;;2.50;99.90;;;;;;5057655;28;20255;-64
2022/01/25 11:32:26;;;;;;;118.57;38.87;;;2.40;99.90;;;;;;5057520;28;20533;-64
2022/01/25 11:34:58;;;;;;;128.23;40.97;;;2.40;99.90;;;;;;5063117;28;20196;-64
2022/01/25 11:37:36;;;;;;;114.83;38.60;;;2.50;99.90;;;;;;5054568;28;20203;-64
2022/01/25 11:40:20;;;;;;;125.00;39.47;;;2.50;99.90;;;;;;5062624;28;20240;-64
2022/01/25 11:42:49;;;;;;;125.10;40.00;;;2.50;99.90;;;;;;5060084;28;20200;-64
2022/01/25 11:45:21;;;;;;;119.27;40.63;;;2.60;99.90;;;;;;5059518;28;20203;-64
2022/01/25 11:47:51;;;;;;;126.63;42.17;;;2.60;99.90;;;;;;5067764;28;20261;-64
2022/01/25 11:50:27;;;;;;;130.43;43.37;;;2.50;99.90;;;;;;5065909;28;20246;-64
2022/01/25 11:52:57;;;;;;;127.53;42.70;;;2.60;99.90;;;;;;5058617;28;20188;-64
2022/01/25 11:55:28;;;;;;;140.13;43.87;;;2.60;99.90;;;;;;5060750;28;20618;-64
2022/01/25 11:57:59;;;;;;;135.27;43.73;;;2.60;99.90;;;;;;5067456;28;20669;-64
2022/01/25 12:00:40;;;;;;;125.73;42.97;;;2.60;99.90;;;;;;5078092;28;20316;-64
2022/01/25 12:03:27;;;;;;;125.43;43.73;;;2.60;99.90;;;;;;5057337;28;20286;-64
2022/01/25 12:06:43;;;;;;;113.20;40.40;;;2.60;99.90;;;;;;5068263;28;20204;-64
2022/01/25 12:09:17;;;;;;;118.37;40.87;;;2.60;99.90;;;;;;5063116;28;20200;-64
2022/01/25 12:11:49;;;;;;;109.47;37.97;;;2.70;99.90;;;;;;5065689;28;20188;-64
2022/01/25 12:14:24;;;;;;;112.83;40.07;;;2.70;99.90;;;;;;5058398;28;20229;-64
2022/01/25 12:16:55;;;;;;;110.63;40.00;;;2.60;99.90;;;;;;5064112;28;20191;-64
2022/01/25 12:19:41;;;;;;;112.77;41.03;;;2.70;99.90;;;;;;5065283;28;20192;-64
2022/01/25 12:22:37;;;;;;;111.97;40.33;;;2.70;99.90;;;;;;5058665;28;20196;-64
2022/01/25 12:25:13;;;;;;;112.63;40.70;;;2.80;99.90;;;;;;5063558;28;20188;-64
2022/01/25 12:27:51;;;;;;;110.83;39.53;;;2.90;99.90;;;;;;5062837;28;20309;-64
2022/01/25 12:30:32;;;;;;;111.90;41.27;;;3.00;99.90;;;;;;5063547;28;20307;-64
2022/01/25 12:33:03;;;;;;;109.50;41.63;;;3.00;99.90;;;;;;5064923;28;20704;-64
2022/01/25 12:35:47;;;;;;;117.50;40.60;;;3.00;99.90;;;;;;5062367;28;20193;-64
2022/01/25 12:38:19;;;;;;;120.27;40.70;;;3.00;99.90;;;;;;5057856;28;20205;-64
2022/01/25 12:41:10;;;;;;;113.40;41.57;;;3.00;99.90;;;;;;5063908;28;20285;-64
2022/01/25 12:43:45;;;;;;;118.03;42.90;;;3.00;99.90;;;;;;5055511;28;20219;-64
2022/01/25 12:46:16;;;;;;;117.60;42.87;;;3.00;99.90;;;;;;5057890;28;20226;-64
2022/01/25 12:48:47;;;;;;;109.60;40.17;;;3.00;99.90;;;;;;5062022;28;20217;-64
2022/01/25 12:51:24;;;;;;;114.67;41.70;;;2.90;99.90;;;;;;5061886;28;20295;-64
2022/01/25 12:53:55;;;;;;;133.53;42.37;;;2.90;99.90;;;;;;5061569;28;20208;-65
2022/01/25 12:56:27;;;;;;;123.10;42.17;;;2.80;99.90;;;;;;5056049;28;20208;-64
2022/01/25 12:58:58;;;;;;;130.67;44.50;;;2.90;99.90;;;;;;5062555;28;20198;-65
2022/01/25 13:01:28;;;;;;;127.43;44.83;;;2.90;99.90;;;;;;5059436;28;20200;-65
2022/01/25 13:03:59;;;;;;;129.33;43.47;;;3.00;99.90;;;;;;5057767;28;20196;-65
2022/01/25 13:06:30;;;;;;;121.90;42.87;;;3.00;99.90;;;;;;5058789;28;20199;-65
2022/01/25 13:09:08;;;;;;;127.80;44.07;;;3.00;99.90;;;;;;5059335;28;20564;-65
2022/01/25 13:11:50;;;;;;;131.20;45.70;;;3.10;99.90;;;;;;5056057;28;20223;-65
2022/01/25 13:14:44;;;;;;;128.10;45.40;;;3.10;99.90;;;;;;5052265;28;20192;-64
2022/01/25 13:17:15;;;;;;;126.70;46.80;;;3.00;99.90;;;;;;5058562;28;20627;-65
2022/01/25 13:19:49;;;;;;;131.93;45.97;;;3.10;99.90;;;;;;5059411;28;20201;-65
2022/01/25 13:22:20;;;;;;;126.50;43.50;;;3.00;99.90;;;;;;5058462;28;20200;-65
2022/01/25 13:24:58;;;;;;;125.63;43.37;;;3.00;99.90;;;;;;5060402;28;20247;-65
2022/01/25 13:27:30;;;;;;;129.63;44.90;;;3.00;99.90;;;;;;5053711;28;20282;-65
2022/01/25 13:32:50;;;;;;;126.20;44.00;;;3.00;99.90;;;;;;5059139;28;20192;-65
2022/01/25 13:35:23;;;;;;;136.20;45.27;;;3.10;99.90;;;;;;5064152;28;20642;-65
2022/01/25 13:38:08;;;;;;;133.73;45.93;;;3.00;99.90;;;;;;5063290;28;20192;-65
2022/01/25 13:40:50;;;;;;;131.47;44.37;;;3.00;99.90;;;;;;5059209;28;20234;-65
2022/01/25 13:46:19;;;;;;;120.40;44.87;;;3.00;99.90;;;;;;5058548;28;20214;-65
2022/01/25 13:48:50;;;;;;;127.97;44.53;;;3.00;99.90;;;;;;5059547;28;20275;-65
2022/01/25 13:51:20;;;;;;;132.07;45.77;;;3.10;99.90;;;;;;5056266;28;20212;-65
2022/01/25 13:53:55;;;;;;;130.70;47.03;;;3.10;99.90;;;;;;5058717;28;20261;-65
2022/01/25 13:56:27;;;;;;;141.73;47.30;;;3.10;99.90;;;;;;5062636;28;20542;-65
2022/01/25 13:58:56;;;;;;;128.73;44.07;;;3.10;99.90;;;;;;5061324;28;20254;-65
2022/01/25 14:01:27;;;;;;;124.87;43.53;;;3.10;99.90;;;;;;5061002;28;20216;-65
2022/01/25 14:03:58;;;;;;;130.37;44.57;;;3.10;99.90;;;;;;5055780;28;20628;-65
2022/01/25 14:06:30;;;;;;;126.13;44.63;;;3.10;99.90;;;;;;5061180;28;20662;-65
2022/01/25 14:09:06;;;;;;;129.30;44.73;;;3.00;99.90;;;;;;5057829;28;20231;-65
2022/01/25 14:11:53;;;;;;;127.40;43.37;;;3.10;99.90;;;;;;5053702;28;20254;-65
2022/01/25 14:22:55;;;;;;;111.63;39.40;;;3.20;99.90;;;;;;5061022;28;20278;-65
2022/01/25 14:25:36;;;;;;;116.67;40.93;;;3.20;99.90;;;;;;5056329;28;20203;-64